Bookmark and Share
Track history (hours):
 

Clifford Maersk

Last reported at 2014-Apr-17 06:07 UTC. Time now 2014-Apr-17 06:59 UTC.
Position N 30°29' E 122°38'.

Type: Ship (hazmat cat A). MMSI: 219840000.

NotesDate/timePositionNaut miles runAvg speedWind from/ knotsBaromVisibWave heightAir tempDewpointWater temp
2014-Apr-17 06:07N 30°29' E 122°38'1016.8
2014-Apr-17 05:32N 30°31' E 122°26'1212.1
2014-Apr-17 04:33N 30°33' E 122°13'10 0.6
2014-Apr-16 11:04N 30°38' E 122°03'1 1.9
2014-Apr-16 10:33N 30°37' E 122°03'1211.5
2014-Apr-16 09:31N 30°34' E 122°17'1914.9
2014-Apr-16 08:16N 30°27' E 122°37'13 1.2
2014-Apr-15 22:03N 30°21' E 122°50'610.6
2014-Apr-15 21:29N 30°18' E 122°56'18 8.4
2014-Apr-15 19:21N 30°00' E 122°50'911.4
2014-Apr-15 18:33N 29°53' E 122°44'1212.0
2014-Apr-15 17:33N 29°46' E 122°32'1212.3
2014-Apr-15 16:33N 29°45' E 122°18'1312.7
2014-Apr-15 15:34N 29°55' E 122°09'1312.6
2014-Apr-15 14:34N 29°57' E 121°55'4 2.0
2014-Apr-15 12:33N 29°57' E 121°50'0 0.0
2014-Apr-15 11:30N 29°57' E 121°50'0 0.0
2014-Apr-15 10:33N 29°57' E 121°50'0 0.0
2014-Apr-15 09:33N 29°57' E 121°50'0 0.0
2014-Apr-15 08:32N 29°57' E 121°50'0 0.0
2014-Apr-15 07:29N 29°57' E 121°50'0 0.0
2014-Apr-15 06:29N 29°57' E 121°50'0 0.0
2014-Apr-15 05:29N 29°57' E 121°50'0 0.0
2014-Apr-15 02:29N 29°57' E 121°50'0 0.0
2014-Apr-15 01:29N 29°57' E 121°50'0 0.0
2014-Apr-14 23:29N 29°57' E 121°50'1 0.8
2014-Apr-14 22:34N 29°57' E 121°50'1110.9
2014-Apr-14 21:34N 29°56' E 122°03'1212.2
2014-Apr-14 20:34N 29°49' E 122°14'8 7.8
2014-Apr-14 19:33N 29°44' E 122°22'10 9.7
2014-Apr-14 18:34N 29°46' E 122°33'1110.7
2014-Apr-14 17:33N 29°47' E 122°45'1212.3
2014-Apr-14 16:34N 29°49' E 122°59'1313.0
2014-Apr-14 15:34N 29°52' E 123°14'1212.2
2014-Apr-14 14:34N 29°53' E 123°28'1211.8
2014-Apr-14 13:34N 29°55' E 123°41'  
2014-Apr-11 15:30N 34°54' E 139°23'1211.6
2014-Apr-11 14:29N 35°01' E 139°35'1111.7
2014-Apr-11 13:33N 35°09' E 139°45'1110.6
2014-Apr-11 12:33N 35°19' E 139°43'5 5.3
2014-Apr-11 11:33N 35°24' E 139°41'0 0.0
2014-Apr-11 10:31N 35°24' E 139°41'0 0.0
2014-Apr-11 09:31N 35°24' E 139°41'0 0.0
2014-Apr-11 08:31N 35°24' E 139°41'0 0.0
2014-Apr-11 07:31N 35°24' E 139°41'0 0.0
2014-Apr-11 06:31N 35°24' E 139°41'0 0.0
2014-Apr-11 05:31N 35°24' E 139°41'0 0.0
2014-Apr-11 04:31N 35°24' E 139°41'0 0.0
2014-Apr-11 03:31N 35°24' E 139°41'0 0.0
2014-Apr-11 02:31N 35°24' E 139°41'0 0.0
2014-Apr-11 01:31N 35°24' E 139°41'0 0.0
2014-Apr-11 00:31N 35°24' E 139°41'0 0.0
2014-Apr-10 23:31N 35°24' E 139°41'1 1.5
2014-Apr-10 22:33N 35°23' E 139°41'10 9.8
2014-Apr-10 21:33N 35°14' E 139°47'1010.4
2014-Apr-10 20:33N 35°04' E 139°42'1211.6
2014-Apr-10 19:29N 34°57' E 139°30'232 5.2
2014-Apr-08 23:12N 33°51' E 135°01'1117.7
2014-Apr-08 22:34N 34°03' E 134°60'1514.8
2014-Apr-08 21:33N 34°17' E 134°59'1716.6
2014-Apr-08 20:33N 34°30' E 135°12'1110.8
2014-Apr-08 19:34N 34°40' E 135°15'1 0.7
2014-Apr-08 18:28N 34°41' E 135°16'0 0.0
2014-Apr-08 17:28N 34°41' E 135°16'0 0.0
2014-Apr-08 16:28N 34°41' E 135°16'0 0.0
2014-Apr-08 15:28N 34°41' E 135°16'0 0.0
2014-Apr-08 14:28N 34°41' E 135°16'0 0.0
2014-Apr-08 13:22N 34°41' E 135°16'0 0.0
2014-Apr-08 12:28N 34°41' E 135°16'0 0.0
2014-Apr-08 11:28N 34°41' E 135°16'0 0.0
2014-Apr-08 10:28N 34°41' E 135°16'0 0.0
2014-Apr-08 09:28N 34°41' E 135°16'0 0.0
2014-Apr-08 08:28N 34°41' E 135°16'0 0.0
2014-Apr-08 07:22N 34°41' E 135°16'0 0.0
2014-Apr-08 06:28N 34°41' E 135°16'0 0.0
2014-Apr-08 05:28N 34°41' E 135°16'0 0.0
2014-Apr-08 04:28N 34°41' E 135°16'0 0.0
2014-Apr-08 03:28N 34°41' E 135°16'0 0.0
2014-Apr-08 02:28N 34°41' E 135°16'0 0.0
2014-Apr-08 01:22N 34°41' E 135°16'0 0.0
2014-Apr-08 00:28N 34°41' E 135°16'0 0.0
2014-Apr-07 23:28N 34°41' E 135°16'1 0.6
2014-Apr-07 22:33N 34°40' E 135°15'7 7.3
2014-Apr-07 21:33N 34°33' E 135°14'1515.2
2014-Apr-07 20:33N 34°21' E 135°03'1414.0
2014-Apr-07 19:34N 34°08' E 134°58'20717.2
2014-Apr-07 07:29N 31°40' E 132°05'  

Dump ship's entire track history

sailing weather and tide predictions

Clifford Maersk — OYRO2 — position and weather